sensor_id;sensor_type;location;lat;lon;timestamp;pressure;altitude;pressure_sealevel;temperature;humidity
54038;BME280;39954;48.844;9.726;2023-06-14T00:00:35;95639.34;;;10.57;99.83
54038;BME280;39954;48.844;9.726;2023-06-14T00:01:41;95639.63;;;10.52;100.00
54038;BME280;39954;48.844;9.726;2023-06-14T00:02:51;95644.94;;;10.51;100.00
54038;BME280;39954;48.844;9.726;2023-06-14T00:03:58;95645.41;;;10.43;100.00
54038;BME280;39954;48.844;9.726;2023-06-14T00:05:01;95647.16;;;10.43;100.00
54038;BME280;39954;48.844;9.726;2023-06-14T00:06:07;95644.03;;;10.38;100.00
54038;BME280;39954;48.844;9.726;2023-06-14T00:07:10;95641.63;;;10.35;100.00
54038;BME280;39954;48.844;9.726;2023-06-14T00:08:15;95646.19;;;10.31;99.38
54038;BME280;39954;48.844;9.726;2023-06-14T00:09:18;95647.84;;;10.32;99.57
54038;BME280;39954;48.844;9.726;2023-06-14T00:10:23;95652.41;;;10.28;98.77
54038;BME280;39954;48.844;9.726;2023-06-14T00:11:26;95637.81;;;10.26;98.01
54038;BME280;39954;48.844;9.726;2023-06-14T00:12:35;95638.00;;;10.37;97.14
54038;BME280;39954;48.844;9.726;2023-06-14T00:13:38;95642.44;;;10.35;96.72
54038;BME280;39954;48.844;9.726;2023-06-14T00:14:45;95639.47;;;10.41;96.58
54038;BME280;39954;48.844;9.726;2023-06-14T00:15:50;95641.97;;;10.43;95.91
54038;BME280;39954;48.844;9.726;2023-06-14T00:16:57;95639.56;;;10.40;94.86
54038;BME280;39954;48.844;9.726;2023-06-14T00:18:00;95633.34;;;10.42;94.87
54038;BME280;39954;48.844;9.726;2023-06-14T00:19:06;95633.34;;;10.42;94.94
54038;BME280;39954;48.844;9.726;2023-06-14T00:20:10;95641.16;;;10.42;94.75
54038;BME280;39954;48.844;9.726;2023-06-14T00:21:16;95640.00;;;10.46;94.16
54038;BME280;39954;48.844;9.726;2023-06-14T00:22:18;95640.41;;;10.40;94.21
54038;BME280;39954;48.844;9.726;2023-06-14T00:23:26;95632.06;;;10.35;94.58
54038;BME280;39954;48.844;9.726;2023-06-14T00:24:29;95636.88;;;10.41;95.23
54038;BME280;39954;48.844;9.726;2023-06-14T00:25:35;95633.56;;;10.39;94.31
54038;BME280;39954;48.844;9.726;2023-06-14T00:26:38;95633.56;;;10.39;94.18
54038;BME280;39954;48.844;9.726;2023-06-14T00:27:46;95641.34;;;10.39;94.07
54038;BME280;39954;48.844;9.726;2023-06-14T00:28:49;95635.41;;;10.37;93.24
54038;BME280;39954;48.844;9.726;2023-06-14T00:29:54;95640.81;;;10.34;92.27
54038;BME280;39954;48.844;9.726;2023-06-14T00:30:57;95637.81;;;10.40;92.11
54038;BME280;39954;48.844;9.726;2023-06-14T00:32:03;95639.66;;;10.38;91.26
54038;BME280;39954;48.844;9.726;2023-06-14T00:33:06;95641.34;;;10.39;91.59
54038;BME280;39954;48.844;9.726;2023-06-14T00:34:11;95641.16;;;10.42;91.52
54038;BME280;39954;48.844;9.726;2023-06-14T00:35:13;95634.63;;;10.49;91.43
54038;BME280;39954;48.844;9.726;2023-06-14T00:36:21;95632.03;;;10.49;90.75
54038;BME280;39954;48.844;9.726;2023-06-14T00:37:24;95636.31;;;10.50;91.41
54038;BME280;39954;48.844;9.726;2023-06-14T00:38:29;95636.09;;;10.53;91.43
54038;BME280;39954;48.844;9.726;2023-06-14T00:39:32;95629.41;;;10.49;90.88
54038;BME280;39954;48.844;9.726;2023-06-14T00:40:37;95636.09;;;10.53;90.99
54038;BME280;39954;48.844;9.726;2023-06-14T00:41:40;95636.94;;;10.54;91.95
54038;BME280;39954;48.844;9.726;2023-06-14T00:42:48;95638.97;;;10.49;91.73
54038;BME280;39954;48.844;9.726;2023-06-14T00:43:51;95636.31;;;10.50;92.18
54038;BME280;39954;48.844;9.726;2023-06-14T00:44:59;95637.41;;;10.46;91.61
54038;BME280;39954;48.844;9.726;2023-06-14T00:46:01;95637.34;;;10.48;91.17
54038;BME280;39954;48.844;9.726;2023-06-14T00:47:07;95639.19;;;10.46;91.22
54038;BME280;39954;48.844;9.726;2023-06-14T00:48:13;95630.16;;;10.51;92.05
54038;BME280;39954;48.844;9.726;2023-06-14T00:49:18;95634.63;;;10.49;91.88
54038;BME280;39954;48.844;9.726;2023-06-14T00:50:24;95637.97;;;10.51;91.40
54038;BME280;39954;48.844;9.726;2023-06-14T00:51:27;95632.97;;;10.48;91.41
54038;BME280;39954;48.844;9.726;2023-06-14T00:52:32;95634.63;;;10.49;90.41
54038;BME280;39954;48.844;9.726;2023-06-14T00:53:35;95634.63;;;10.49;91.01
54038;BME280;39954;48.844;9.726;2023-06-14T00:54:42;95632.41;;;10.43;91.33
54038;BME280;39954;48.844;9.726;2023-06-14T00:55:47;95632.69;;;10.39;92.14
54038;BME280;39954;48.844;9.726;2023-06-14T00:56:53;95626.47;;;10.41;92.90
54038;BME280;39954;48.844;9.726;2023-06-14T00:57:58;95634.19;;;10.43;92.14
54038;BME280;39954;48.844;9.726;2023-06-14T00:59:04;95636.88;;;10.41;90.98
54038;BME280;39954;48.844;9.726;2023-06-14T01:00:07;95633.56;;;10.39;90.09
54038;BME280;39954;48.844;9.726;2023-06-14T01:01:14;95633.16;;;10.45;91.09
54038;BME280;39954;48.844;9.726;2023-06-14T01:02:17;95632.34;;;10.45;90.86
54038;BME280;39954;48.844;9.726;2023-06-14T01:03:22;95633.91;;;10.47;91.55
54038;BME280;39954;48.844;9.726;2023-06-14T01:04:27;95631.47;;;10.44;90.80
54038;BME280;39954;48.844;9.726;2023-06-14T01:05:32;95633.91;;;10.47;91.27
54038;BME280;39954;48.844;9.726;2023-06-14T01:06:41;95630.44;;;10.47;89.48
54038;BME280;39954;48.844;9.726;2023-06-14T01:08:02;95638.25;;;10.47;89.47
54038;BME280;39954;48.844;9.726;2023-06-14T01:09:13;95634.00;;;10.46;88.92
54038;BME280;39954;48.844;9.726;2023-06-14T01:10:27;95631.47;;;10.44;89.23
54038;BME280;39954;48.844;9.726;2023-06-14T01:11:39;95633.25;;;10.44;89.53
54038;BME280;39954;48.844;9.726;2023-06-14T01:12:52;95629.91;;;10.42;88.98
54038;BME280;39954;48.844;9.726;2023-06-14T01:14:02;95634.94;;;10.45;89.58
54038;BME280;39954;48.844;9.726;2023-06-14T01:15:10;95629.81;;;10.43;90.14
54038;BME280;39954;48.844;9.726;2023-06-14T01:16:13;95630.66;;;10.44;90.67
54038;BME280;39954;48.844;9.726;2023-06-14T01:17:19;95631.66;;;10.41;90.66
54038;BME280;39954;48.844;9.726;2023-06-14T01:18:23;95629.06;;;10.41;90.13
54038;BME280;39954;48.844;9.726;2023-06-14T01:19:28;95633.56;;;10.39;90.89
54038;BME280;39954;48.844;9.726;2023-06-14T01:20:32;95631.13;;;10.36;91.39
54038;BME280;39954;48.844;9.726;2023-06-14T01:21:39;95630.41;;;10.34;91.52
54038;BME280;39954;48.844;9.726;2023-06-14T01:22:51;95631.22;;;10.35;91.13
54038;BME280;39954;48.844;9.726;2023-06-14T01:23:57;95638.75;;;10.39;91.37
54038;BME280;39954;48.844;9.726;2023-06-14T01:25:00;95626.66;;;10.38;91.26
54038;BME280;39954;48.844;9.726;2023-06-14T01:26:07;95635.22;;;10.40;91.83
54038;BME280;39954;48.844;9.726;2023-06-14T01:27:10;95636.44;;;10.35;91.11
54038;BME280;39954;48.844;9.726;2023-06-14T01:28:18;95632.06;;;10.35;91.57
54038;BME280;39954;48.844;9.726;2023-06-14T01:29:22;95627.81;;;10.34;91.57
54038;BME280;39954;48.844;9.726;2023-06-14T01:30:27;95627.06;;;10.32;91.66
54038;BME280;39954;48.844;9.726;2023-06-14T01:31:32;95631.22;;;10.35;91.22
54038;BME280;39954;48.844;9.726;2023-06-14T01:32:44;95628.44;;;10.38;91.60
54038;BME280;39954;48.844;9.726;2023-06-14T01:33:47;95632.91;;;10.36;92.47
54038;BME280;39954;48.844;9.726;2023-06-14T01:34:53;95631.31;;;10.33;92.26
54038;BME280;39954;48.844;9.726;2023-06-14T01:35:56;95636.72;;;10.30;92.67
54038;BME280;39954;48.844;9.726;2023-06-14T01:37:02;95622.69;;;10.33;91.73
54038;BME280;39954;48.844;9.726;2023-06-14T01:38:08;95624.56;;;10.30;91.71
54038;BME280;39954;48.844;9.726;2023-06-14T01:39:14;95625.59;;;10.28;92.02
54038;BME280;39954;48.844;9.726;2023-06-14T01:40:18;95629.66;;;10.32;91.63
54038;BME280;39954;48.844;9.726;2023-06-14T01:41:25;95624.47;;;10.32;91.07
54038;BME280;39954;48.844;9.726;2023-06-14T01:42:32;95626.44;;;10.28;90.54
54038;BME280;39954;48.844;9.726;2023-06-14T01:43:39;95627.25;;;10.29;90.45
54038;BME280;39954;48.844;9.726;2023-06-14T01:44:44;95624.00;;;10.25;90.43
54038;BME280;39954;48.844;9.726;2023-06-14T01:45:51;95630.22;;;10.23;90.08
54038;BME280;39954;48.844;9.726;2023-06-14T01:46:55;95625.94;;;10.22;90.45
54038;BME280;39954;48.844;9.726;2023-06-14T01:48:00;95623.44;;;10.20;90.42
54038;BME280;39954;48.844;9.726;2023-06-14T01:49:03;95626.69;;;10.24;90.55
54038;BME280;39954;48.844;9.726;2023-06-14T01:50:09;95622.50;;;10.21;91.03
54038;BME280;39954;48.844;9.726;2023-06-14T01:51:12;95622.63;;;10.20;90.68
54038;BME280;39954;48.844;9.726;2023-06-14T01:52:17;95620.84;;;10.20;90.44
54038;BME280;39954;48.844;9.726;2023-06-14T01:53:24;95626.88;;;10.21;91.12
54038;BME280;39954;48.844;9.726;2023-06-14T01:54:29;95629.47;;;10.21;91.61
54038;BME280;39954;48.844;9.726;2023-06-14T01:55:32;95632.06;;;10.21;91.63
54038;BME280;39954;48.844;9.726;2023-06-14T01:56:40;95626.13;;;10.19;91.83
54038;BME280;39954;48.844;9.726;2023-06-14T01:57:43;95627.25;;;10.15;91.95
54038;BME280;39954;48.844;9.726;2023-06-14T01:58:48;95630.88;;;10.12;92.21
54038;BME280;39954;48.844;9.726;2023-06-14T01:59:51;95628.16;;;10.14;91.27
54038;BME280;39954;48.844;9.726;2023-06-14T02:00:57;95625.56;;;10.14;91.45
54038;BME280;39954;48.844;9.726;2023-06-14T02:01:59;95627.47;;;10.12;91.61
54038;BME280;39954;48.844;9.726;2023-06-14T02:03:05;95620.50;;;10.12;91.11
54038;BME280;39954;48.844;9.726;2023-06-14T02:04:08;95630.06;;;10.12;91.20
54038;BME280;39954;48.844;9.726;2023-06-14T02:05:13;95626.53;;;10.13;91.69
54038;BME280;39954;48.844;9.726;2023-06-14T02:06:17;95629.13;;;10.13;92.52
54038;BME280;39954;48.844;9.726;2023-06-14T02:07:22;95630.97;;;10.11;93.20
54038;BME280;39954;48.844;9.726;2023-06-14T02:08:28;95629.69;;;10.03;94.06
54038;BME280;39954;48.844;9.726;2023-06-14T02:09:34;95622.81;;;10.02;94.50
54038;BME280;39954;48.844;9.726;2023-06-14T02:10:36;95621.34;;;9.98;95.15
54038;BME280;39954;48.844;9.726;2023-06-14T02:11:42;95634.34;;;9.98;96.03
54038;BME280;39954;48.844;9.726;2023-06-14T02:12:44;95633.03;;;9.91;97.33
54038;BME280;39954;48.844;9.726;2023-06-14T02:13:49;95627.19;;;9.88;98.39
54038;BME280;39954;48.844;9.726;2023-06-14T02:14:52;95633.59;;;9.82;99.93
54038;BME280;39954;48.844;9.726;2023-06-14T02:15:58;95630.25;;;9.80;100.00
54038;BME280;39954;48.844;9.726;2023-06-14T02:17:01;95625.44;;;9.74;100.00
54038;BME280;39954;48.844;9.726;2023-06-14T02:18:06;95625.56;;;9.72;100.00
54038;BME280;39954;48.844;9.726;2023-06-14T02:19:10;95621.75;;;9.63;100.00
54038;BME280;39954;48.844;9.726;2023-06-14T02:20:15;95621.66;;;9.65;100.00
54038;BME280;39954;48.844;9.726;2023-06-14T02:21:19;95613.97;;;9.63;100.00
54038;BME280;39954;48.844;9.726;2023-06-14T02:22:24;95618.69;;;9.57;100.00
54038;BME280;39954;48.844;9.726;2023-06-14T02:23:29;95623.22;;;9.53;100.00
54038;BME280;39954;48.844;9.726;2023-06-14T02:24:36;95621.72;;;9.49;100.00
54038;BME280;39954;48.844;9.726;2023-06-14T02:25:38;95618.41;;;9.47;100.00
54038;BME280;39954;48.844;9.726;2023-06-14T02:26:45;95623.78;;;9.44;100.00
54038;BME280;39954;48.844;9.726;2023-06-14T02:27:50;95618.59;;;9.44;100.00
54038;BME280;39954;48.844;9.726;2023-06-14T02:28:55;95624.78;;;9.41;100.00
54038;BME280;39954;48.844;9.726;2023-06-14T02:29:59;95617.91;;;9.40;100.00
54038;BME280;39954;48.844;9.726;2023-06-14T02:31:04;95625.81;;;9.39;99.87
54038;BME280;39954;48.844;9.726;2023-06-14T02:32:08;95624.63;;;9.45;98.95
54038;BME280;39954;48.844;9.726;2023-06-14T02:33:13;95628.97;;;9.44;98.15
54038;BME280;39954;48.844;9.726;2023-06-14T02:34:16;95617.59;;;9.47;98.51
54038;BME280;39954;48.844;9.726;2023-06-14T02:35:22;95625.44;;;9.45;99.10
54038;BME280;39954;48.844;9.726;2023-06-14T02:36:28;95620.06;;;9.48;100.00
54038;BME280;39954;48.844;9.726;2023-06-14T02:37:33;95626.00;;;9.50;99.35
54038;BME280;39954;48.844;9.726;2023-06-14T02:38:38;95622.41;;;9.53;98.54
54038;BME280;39954;48.844;9.726;2023-06-14T02:39:44;95629.25;;;9.54;97.28
54038;BME280;39954;48.844;9.726;2023-06-14T02:40:46;95628.22;;;9.56;97.64
54038;BME280;39954;48.844;9.726;2023-06-14T02:41:52;95630.75;;;9.58;97.90
54038;BME280;39954;48.844;9.726;2023-06-14T02:42:54;95628.03;;;9.59;98.13
54038;BME280;39954;48.844;9.726;2023-06-14T02:44:00;95629.69;;;9.60;98.29
54038;BME280;39954;48.844;9.726;2023-06-14T02:45:03;95628.88;;;9.60;98.46
54038;BME280;39954;48.844;9.726;2023-06-14T02:46:08;95625.38;;;9.61;96.76
54038;BME280;39954;48.844;9.726;2023-06-14T02:47:10;95627.84;;;9.62;96.92
54038;BME280;39954;48.844;9.726;2023-06-14T02:48:15;95615.81;;;9.61;96.97
54038;BME280;39954;48.844;9.726;2023-06-14T02:49:19;95628.50;;;9.66;95.60
54038;BME280;39954;48.844;9.726;2023-06-14T02:50:25;95624.88;;;9.69;97.49
54038;BME280;39954;48.844;9.726;2023-06-14T02:51:28;95629.34;;;9.67;97.25
54038;BME280;39954;48.844;9.726;2023-06-14T02:52:34;95619.88;;;9.66;97.42
54038;BME280;39954;48.844;9.726;2023-06-14T02:53:39;95619.50;;;9.57;97.91
54038;BME280;39954;48.844;9.726;2023-06-14T02:54:44;95625.06;;;9.51;98.55
54038;BME280;39954;48.844;9.726;2023-06-14T02:55:46;95628.78;;;9.47;98.81
54038;BME280;39954;48.844;9.726;2023-06-14T02:56:52;95630.00;;;9.41;99.87
54038;BME280;39954;48.844;9.726;2023-06-14T02:57:54;95630.16;;;9.38;100.00
54038;BME280;39954;48.844;9.726;2023-06-14T02:58:59;95630.50;;;9.32;100.00
54038;BME280;39954;48.844;9.726;2023-06-14T03:00:03;95630.88;;;9.26;100.00
54038;BME280;39954;48.844;9.726;2023-06-14T03:01:11;95629.41;;;9.22;100.00
54038;BME280;39954;48.844;9.726;2023-06-14T03:02:18;95633.00;;;9.19;100.00
54038;BME280;39954;48.844;9.726;2023-06-14T03:03:25;95632.63;;;9.11;100.00
54038;BME280;39954;48.844;9.726;2023-06-14T03:04:28;95631.22;;;9.06;100.00
54038;BME280;39954;48.844;9.726;2023-06-14T03:05:36;95629.63;;;9.03;100.00
54038;BME280;39954;48.844;9.726;2023-06-14T03:06:39;95632.47;;;8.99;100.00
54038;BME280;39954;48.844;9.726;2023-06-14T03:07:46;95630.16;;;8.94;100.00
54038;BME280;39954;48.844;9.726;2023-06-14T03:08:52;95626.00;;;8.91;100.00
54038;BME280;39954;48.844;9.726;2023-06-14T03:10:00;95627.56;;;8.94;100.00
54038;BME280;39954;48.844;9.726;2023-06-14T03:11:03;95632.19;;;8.89;100.00
54038;BME280;39954;48.844;9.726;2023-06-14T03:12:10;95633.13;;;8.88;100.00
54038;BME280;39954;48.844;9.726;2023-06-14T03:13:13;95637.38;;;8.89;100.00
54038;BME280;39954;48.844;9.726;2023-06-14T03:14:19;95631.44;;;8.87;100.00
54038;BME280;39954;48.844;9.726;2023-06-14T03:15:23;95631.34;;;8.88;100.00
54038;BME280;39954;48.844;9.726;2023-06-14T03:16:29;95628.47;;;8.93;100.00
54038;BME280;39954;48.844;9.726;2023-06-14T03:17:32;95633.84;;;8.90;100.00
54038;BME280;39954;48.844;9.726;2023-06-14T03:18:41;95631.81;;;8.95;100.00
54038;BME280;39954;48.844;9.726;2023-06-14T03:19:44;95625.16;;;8.91;100.00
54038;BME280;39954;48.844;9.726;2023-06-14T03:20:50;95631.25;;;8.90;100.00
54038;BME280;39954;48.844;9.726;2023-06-14T03:21:53;95628.66;;;8.90;100.00
54038;BME280;39954;48.844;9.726;2023-06-14T03:22:59;95629.59;;;8.89;100.00
54038;BME280;39954;48.844;9.726;2023-06-14T03:24:06;95627.00;;;8.89;100.00
54038;BME280;39954;48.844;9.726;2023-06-14T03:25:11;95633.66;;;8.93;100.00
54038;BME280;39954;48.844;9.726;2023-06-14T03:26:15;95632.59;;;8.97;100.00
54038;BME280;39954;48.844;9.726;2023-06-14T03:27:20;95636.84;;;8.98;100.00
54038;BME280;39954;48.844;9.726;2023-06-14T03:28:22;95643.72;;;8.99;100.00
54038;BME280;39954;48.844;9.726;2023-06-14T03:29:28;95637.47;;;9.02;100.00
54038;BME280;39954;48.844;9.726;2023-06-14T03:30:31;95635.06;;;8.99;100.00
54038;BME280;39954;48.844;9.726;2023-06-14T03:31:39;95638.66;;;8.96;100.00
54038;BME280;39954;48.844;9.726;2023-06-14T03:32:42;95637.84;;;8.95;100.00
54038;BME280;39954;48.844;9.726;2023-06-14T03:33:47;95630.75;;;8.99;100.00
54038;BME280;39954;48.844;9.726;2023-06-14T03:34:50;95642.00;;;8.98;100.00
54038;BME280;39954;48.844;9.726;2023-06-14T03:35:56;95638.59;;;8.98;100.00
54038;BME280;39954;48.844;9.726;2023-06-14T03:36:58;95642.00;;;8.98;100.00
54038;BME280;39954;48.844;9.726;2023-06-14T03:38:03;95640.44;;;8.95;100.00
54038;BME280;39954;48.844;9.726;2023-06-14T03:39:09;95646.28;;;8.99;100.00
54038;BME280;39954;48.844;9.726;2023-06-14T03:40:17;95641.94;;;9.00;100.00
54038;BME280;39954;48.844;9.726;2023-06-14T03:41:20;95638.34;;;9.02;100.00
54038;BME280;39954;48.844;9.726;2023-06-14T03:42:25;95647.84;;;9.02;100.00
54038;BME280;39954;48.844;9.726;2023-06-14T03:43:27;95641.75;;;9.03;100.00
54038;BME280;39954;48.844;9.726;2023-06-14T03:44:33;95642.41;;;9.06;100.00
54038;BME280;39954;48.844;9.726;2023-06-14T03:45:35;95639.06;;;9.04;100.00
54038;BME280;39954;48.844;9.726;2023-06-14T03:46:41;95647.78;;;9.03;100.00
54038;BME280;39954;48.844;9.726;2023-06-14T03:47:43;95655.38;;;9.06;100.00
54038;BME280;39954;48.844;9.726;2023-06-14T03:48:48;95652.78;;;9.06;100.00
54038;BME280;39954;48.844;9.726;2023-06-14T03:49:51;95653.53;;;9.08;100.00
54038;BME280;39954;48.844;9.726;2023-06-14T03:50:56;95645.41;;;9.14;100.00
54038;BME280;39954;48.844;9.726;2023-06-14T03:52:03;95645.13;;;9.19;100.00
54038;BME280;39954;48.844;9.726;2023-06-14T03:53:08;95655.97;;;9.26;100.00
54038;BME280;39954;48.844;9.726;2023-06-14T03:54:14;95653.38;;;9.26;100.00
54038;BME280;39954;48.844;9.726;2023-06-14T03:55:39;95657.00;;;9.23;100.00
54038;BME280;39954;48.844;9.726;2023-06-14T03:56:48;95653.31;;;9.27;100.00
54038;BME280;39954;48.844;9.726;2023-06-14T03:57:50;95654.03;;;9.29;100.00
54038;BME280;39954;48.844;9.726;2023-06-14T03:58:56;95661.81;;;9.29;100.00
54038;BME280;39954;48.844;9.726;2023-06-14T03:59:58;95662.56;;;9.31;100.00
54038;BME280;39954;48.844;9.726;2023-06-14T04:01:06;95657.31;;;9.33;100.00
54038;BME280;39954;48.844;9.726;2023-06-14T04:02:09;95664.91;;;9.36;100.00
54038;BME280;39954;48.844;9.726;2023-06-14T04:03:17;95662.31;;;9.36;100.00
54038;BME280;39954;48.844;9.726;2023-06-14T04:04:22;95664.72;;;9.39;100.00
54038;BME280;39954;48.844;9.726;2023-06-14T04:05:31;95663.41;;;9.46;100.00
54038;BME280;39954;48.844;9.726;2023-06-14T04:06:34;95670.38;;;9.46;100.00
54038;BME280;39954;48.844;9.726;2023-06-14T04:07:39;95670.00;;;9.52;100.00
54038;BME280;39954;48.844;9.726;2023-06-14T04:08:42;95668.41;;;9.49;100.00
54038;BME280;39954;48.844;9.726;2023-06-14T04:09:50;95676.56;;;9.57;100.00
54038;BME280;39954;48.844;9.726;2023-06-14T04:10:58;95676.56;;;9.57;100.00
54038;BME280;39954;48.844;9.726;2023-06-14T04:12:00;95675.38;;;9.63;100.00
54038;BME280;39954;48.844;9.726;2023-06-14T04:13:07;95681.25;;;9.67;100.00
54038;BME280;39954;48.844;9.726;2023-06-14T04:14:15;95678.66;;;9.67;100.00
54038;BME280;39954;48.844;9.726;2023-06-14T04:15:20;95675.13;;;9.68;100.00
54038;BME280;39954;48.844;9.726;2023-06-14T04:16:23;95681.25;;;9.67;100.00
54038;BME280;39954;48.844;9.726;2023-06-14T04:17:29;95675.31;;;9.64;100.00
54038;BME280;39954;48.844;9.726;2023-06-14T04:18:31;95673.66;;;9.63;100.00
54038;BME280;39954;48.844;9.726;2023-06-14T04:19:37;95676.25;;;9.63;100.00
54038;BME280;39954;48.844;9.726;2023-06-14T04:20:39;95677.16;;;9.62;100.00
54038;BME280;39954;48.844;9.726;2023-06-14T04:21:46;95684.09;;;9.62;100.00
54038;BME280;39954;48.844;9.726;2023-06-14T04:22:48;95687.34;;;9.66;100.00
54038;BME280;39954;48.844;9.726;2023-06-14T04:23:56;95680.13;;;9.71;100.00
54038;BME280;39954;48.844;9.726;2023-06-14T04:25:01;95683.28;;;9.76;100.00
54038;BME280;39954;48.844;9.726;2023-06-14T04:26:08;95680.88;;;9.87;100.00
54038;BME280;39954;48.844;9.726;2023-06-14T04:27:12;95677.91;;;9.93;100.00
54038;BME280;39954;48.844;9.726;2023-06-14T04:28:23;95671.97;;;10.05;100.00
54038;BME280;39954;48.844;9.726;2023-06-14T04:29:27;95679.38;;;10.12;100.00
54038;BME280;39954;48.844;9.726;2023-06-14T04:30:33;95673.34;;;10.25;100.00
54038;BME280;39954;48.844;9.726;2023-06-14T04:31:37;95677.16;;;10.34;100.00
54038;BME280;39954;48.844;9.726;2023-06-14T04:32:42;95678.63;;;10.38;100.00
54038;BME280;39954;48.844;9.726;2023-06-14T04:33:46;95674.53;;;10.48;100.00
54038;BME280;39954;48.844;9.726;2023-06-14T04:34:53;95678.38;;;10.56;100.00
54038;BME280;39954;48.844;9.726;2023-06-14T04:35:57;95678.75;;;10.64;100.00
54038;BME280;39954;48.844;9.726;2023-06-14T04:37:03;95676.50;;;10.72;100.00
54038;BME280;39954;48.844;9.726;2023-06-14T04:38:06;95670.06;;;10.78;100.00
54038;BME280;39954;48.844;9.726;2023-06-14T04:39:12;95674.97;;;10.82;99.60
54038;BME280;39954;48.844;9.726;2023-06-14T04:40:18;95675.53;;;10.87;99.14
54038;BME280;39954;48.844;9.726;2023-06-14T04:41:23;95671.56;;;10.94;98.93
54038;BME280;39954;48.844;9.726;2023-06-14T04:42:32;95674.91;;;10.96;99.40
54038;BME280;39954;48.844;9.726;2023-06-14T04:43:39;95679.09;;;10.99;98.59
54038;BME280;39954;48.844;9.726;2023-06-14T04:44:41;95676.00;;;11.07;99.04
54038;BME280;39954;48.844;9.726;2023-06-14T04:45:47;95681.75;;;11.12;97.70
54038;BME280;39954;48.844;9.726;2023-06-14T04:46:51;95675.38;;;11.16;96.80
54038;BME280;39954;48.844;9.726;2023-06-14T04:47:58;95677.69;;;11.20;96.86
54038;BME280;39954;48.844;9.726;2023-06-14T04:49:01;95683.53;;;11.24;96.89
54038;BME280;39954;48.844;9.726;2023-06-14T04:50:07;95689.25;;;11.29;96.57
54038;BME280;39954;48.844;9.726;2023-06-14T04:51:09;95687.91;;;11.36;95.50
54038;BME280;39954;48.844;9.726;2023-06-14T04:52:27;95690.31;;;11.39;95.19
54038;BME280;39954;48.844;9.726;2023-06-14T04:53:33;95693.44;;;11.45;94.95
54038;BME280;39954;48.844;9.726;2023-06-14T04:54:39;95693.97;;;11.50;93.80
54038;BME280;39954;48.844;9.726;2023-06-14T04:55:59;95691.06;;;11.54;94.16
54038;BME280;39954;48.844;9.726;2023-06-14T04:57:06;95689.81;;;11.60;93.86
54038;BME280;39954;48.844;9.726;2023-06-14T04:58:08;95696.38;;;11.65;93.97
54038;BME280;39954;48.844;9.726;2023-06-14T04:59:14;95695.22;;;11.70;93.73
54038;BME280;39954;48.844;9.726;2023-06-14T05:00:20;95701.78;;;11.75;93.73
54038;BME280;39954;48.844;9.726;2023-06-14T05:01:25;95694.50;;;11.80;93.14
54038;BME280;39954;48.844;9.726;2023-06-14T05:02:28;95697.72;;;11.84;93.92
54038;BME280;39954;48.844;9.726;2023-06-14T05:03:33;95694.13;;;11.86;93.40
54038;BME280;39954;48.844;9.726;2023-06-14T05:04:36;95701.72;;;11.90;93.24
54038;BME280;39954;48.844;9.726;2023-06-14T05:05:42;95705.78;;;11.94;92.35
54038;BME280;39954;48.844;9.726;2023-06-14T05:06:45;95694.13;;;11.99;90.53
54038;BME280;39954;48.844;9.726;2023-06-14T05:07:50;95695.47;;;12.05;92.06
54038;BME280;39954;48.844;9.726;2023-06-14T05:08:53;95697.97;;;12.06;91.29
54038;BME280;39954;48.844;9.726;2023-06-14T05:10:00;95703.59;;;12.13;90.79
54038;BME280;39954;48.844;9.726;2023-06-14T05:11:06;95696.50;;;12.15;90.55
54038;BME280;39954;48.844;9.726;2023-06-14T05:12:11;95696.28;;;12.18;90.57
54038;BME280;39954;48.844;9.726;2023-06-14T05:13:13;95701.31;;;12.21;90.54
54038;BME280;39954;48.844;9.726;2023-06-14T05:14:19;95704.41;;;12.26;90.72
54038;BME280;39954;48.844;9.726;2023-06-14T05:15:22;95700.66;;;12.30;89.43
54038;BME280;39954;48.844;9.726;2023-06-14T05:16:29;95697.41;;;12.40;88.99
54038;BME280;39954;48.844;9.726;2023-06-14T05:17:32;95697.91;;;12.45;88.74
54038;BME280;39954;48.844;9.726;2023-06-14T05:18:38;95697.69;;;12.48;85.25
54038;BME280;39954;48.844;9.726;2023-06-14T05:19:42;95697.25;;;12.54;86.17
54038;BME280;39954;48.844;9.726;2023-06-14T05:20:48;95698.72;;;12.58;85.49
54038;BME280;39954;48.844;9.726;2023-06-14T05:21:51;95692.31;;;12.62;85.14
54038;BME280;39954;48.844;9.726;2023-06-14T05:22:57;95696.41;;;12.66;85.03
54038;BME280;39954;48.844;9.726;2023-06-14T05:24:01;95699.47;;;12.71;85.00
54038;BME280;39954;48.844;9.726;2023-06-14T05:25:08;95699.16;;;12.76;85.33
54038;BME280;39954;48.844;9.726;2023-06-14T05:26:13;95695.50;;;12.79;84.47
54038;BME280;39954;48.844;9.726;2023-06-14T05:27:19;95703.84;;;12.84;85.40
54038;BME280;39954;48.844;9.726;2023-06-14T05:28:22;95696.53;;;12.89;84.96
54038;BME280;39954;48.844;9.726;2023-06-14T05:29:27;95707.25;;;12.97;83.50
54038;BME280;39954;48.844;9.726;2023-06-14T05:30:31;95712.22;;;13.00;83.72
54038;BME280;39954;48.844;9.726;2023-06-14T05:31:37;95704.78;;;13.07;83.08
54038;BME280;39954;48.844;9.726;2023-06-14T05:32:39;95709.78;;;13.10;84.92
54038;BME280;39954;48.844;9.726;2023-06-14T05:33:45;95712.06;;;13.14;81.66
54038;BME280;39954;48.844;9.726;2023-06-14T05:34:48;95711.84;;;13.17;82.80
54038;BME280;39954;48.844;9.726;2023-06-14T05:35:54;95713.25;;;13.21;82.04
54038;BME280;39954;48.844;9.726;2023-06-14T05:36:57;95716.16;;;13.30;81.75
54038;BME280;39954;48.844;9.726;2023-06-14T05:38:02;95709.16;;;13.30;80.13
54038;BME280;39954;48.844;9.726;2023-06-14T05:39:05;95714.28;;;13.32;80.36
54038;BME280;39954;48.844;9.726;2023-06-14T05:40:11;95712.41;;;13.34;80.12
54038;BME280;39954;48.844;9.726;2023-06-14T05:41:17;95712.19;;;13.37;79.55
54038;BME280;39954;48.844;9.726;2023-06-14T05:42:22;95718.00;;;13.40;79.64
54038;BME280;39954;48.844;9.726;2023-06-14T05:43:25;95718.59;;;13.44;79.84
54038;BME280;39954;48.844;9.726;2023-06-14T05:44:31;95719.72;;;13.53;79.31
54038;BME280;39954;48.844;9.726;2023-06-14T05:45:33;95721.38;;;13.54;78.19